createdAt,value
2022-11-20T00:01:22.312Z,20.73
2022-11-20T00:03:49.866Z,23.52
2022-11-20T00:06:18.839Z,22.10
2022-11-20T00:08:46.317Z,24.95
2022-11-20T00:11:21.111Z,24.08
2022-11-20T00:13:49.732Z,25.90
2022-11-20T00:16:18.692Z,24.52
2022-11-20T00:18:45.904Z,22.63
2022-11-20T00:21:16.181Z,23.73
2022-11-20T00:23:43.385Z,23.83
2022-11-20T00:26:12.430Z,23.73
2022-11-20T00:28:39.777Z,24.75
2022-11-20T00:31:09.721Z,26.27
2022-11-20T00:33:36.577Z,25.23
2022-11-20T00:36:09.197Z,24.45
2022-11-20T00:38:36.216Z,25.50
2022-11-20T00:41:05.498Z,24.60
2022-11-20T00:43:32.461Z,28.00
2022-11-20T00:45:59.069Z,27.45
2022-11-20T00:48:26.014Z,28.55
2022-11-20T00:50:52.924Z,24.25
2022-11-20T00:53:19.754Z,26.15
2022-11-20T00:55:57.383Z,25.48
2022-11-20T00:58:24.983Z,23.27
2022-11-20T01:00:52.138Z,24.25
2022-11-20T01:03:24.045Z,22.45
2022-11-20T01:05:53.429Z,23.48
2022-11-20T01:08:20.131Z,23.55
2022-11-20T01:10:46.826Z,23.88
2022-11-20T01:13:32.185Z,23.25
2022-11-20T01:16:04.334Z,20.67
2022-11-20T01:18:30.961Z,23.27
2022-11-20T01:21:03.558Z,21.88
2022-11-20T01:23:34.781Z,22.83
2022-11-20T01:26:04.029Z,22.88
2022-11-20T01:28:31.662Z,21.42
2022-11-20T01:30:59.004Z,22.40
2022-11-20T01:33:25.909Z,22.58
2022-11-20T01:35:53.003Z,23.58
2022-11-20T01:38:21.173Z,26.00
2022-11-20T01:40:55.446Z,26.40
2022-11-20T01:43:22.186Z,27.30
2022-11-20T01:46:20.451Z,24.80
2022-11-20T01:48:52.106Z,24.60
2022-11-20T01:51:28.787Z,25.08
2022-11-20T01:53:57.314Z,26.45
2022-11-20T01:56:24.323Z,25.60
2022-11-20T01:58:53.881Z,25.65
2022-11-20T02:01:22.109Z,22.70
2022-11-20T02:03:49.520Z,23.30
2022-11-20T02:07:01.609Z,24.73
2022-11-20T02:09:29.228Z,25.42
2022-11-20T02:11:56.267Z,23.55
2022-11-20T02:14:24.055Z,22.52
2022-11-20T02:16:51.206Z,23.70
2022-11-20T02:19:24.446Z,24.88
2022-11-20T02:22:14.248Z,24.50
2022-11-20T02:24:42.120Z,26.65
2022-11-20T02:27:11.707Z,26.77
2022-11-20T02:29:40.655Z,26.30
2022-11-20T02:32:07.378Z,24.98
2022-11-20T02:34:34.300Z,25.30
2022-11-20T02:37:01.018Z,25.38
2022-11-20T02:39:29.058Z,26.63
2022-11-20T02:41:56.975Z,25.50
2022-11-20T02:44:23.643Z,25.33
2022-11-20T02:46:50.294Z,24.95
2022-11-20T02:49:18.146Z,25.25
2022-11-20T02:51:45.236Z,25.45
2022-11-20T02:54:11.892Z,28.50
2022-11-20T02:56:39.840Z,28.35
2022-11-20T02:59:06.974Z,27.83
2022-11-20T03:01:33.744Z,29.10
2022-11-20T03:04:00.718Z,33.30
2022-11-20T03:06:27.589Z,28.35
2022-11-20T03:08:54.489Z,27.00
2022-11-20T03:11:21.446Z,28.60
2022-11-20T03:13:48.166Z,27.38
2022-11-20T03:16:17.559Z,29.35
2022-11-20T03:18:44.898Z,27.75
2022-11-20T03:21:13.186Z,26.63
2022-11-20T03:23:40.535Z,26.63
2022-11-20T03:26:22.971Z,30.35
2022-11-20T03:28:54.427Z,27.58
2022-11-20T03:31:23.579Z,28.08
2022-11-20T03:33:50.826Z,30.45
2022-11-20T03:36:19.275Z,28.75
2022-11-20T03:38:46.075Z,29.85
2022-11-20T03:41:16.293Z,30.48
2022-11-20T03:43:43.037Z,27.05
2022-11-20T03:46:09.774Z,27.33
2022-11-20T03:48:36.596Z,28.45
2022-11-20T03:51:11.894Z,29.30
2022-11-20T03:53:39.518Z,27.00
2022-11-20T03:56:06.795Z,25.60
2022-11-20T03:58:35.300Z,25.67
2022-11-20T04:01:07.510Z,27.05
2022-11-20T04:03:34.454Z,26.13
2022-11-20T04:06:15.144Z,24.40
2022-11-20T04:08:42.421Z,27.08
2022-11-20T04:11:14.697Z,27.48
2022-11-20T04:13:42.436Z,25.20
2022-11-20T04:16:10.684Z,24.30
2022-11-20T04:18:37.808Z,25.77
2022-11-20T04:21:05.057Z,26.98
2022-11-20T04:23:31.690Z,23.23
2022-11-20T04:26:06.941Z,21.67
2022-11-20T04:28:33.692Z,22.17
2022-11-20T04:31:09.018Z,23.63
2022-11-20T04:33:36.421Z,22.98
2022-11-20T04:36:23.316Z,23.85
2022-11-20T04:38:58.530Z,24.08
2022-11-20T04:41:30.228Z,24.00
2022-11-20T04:44:06.329Z,28.08
2022-11-20T04:46:41.142Z,26.13
2022-11-20T04:49:08.651Z,25.27
2022-11-20T04:51:35.701Z,18.98
2022-11-20T04:54:02.557Z,21.20
2022-11-20T04:56:29.249Z,19.40
2022-11-20T04:58:55.901Z,19.85
2022-11-20T05:01:24.515Z,18.88
2022-11-20T05:03:51.658Z,21.00
2022-11-20T05:06:20.580Z,21.45
2022-11-20T05:08:47.431Z,20.20
2022-11-20T05:11:16.806Z,22.60
2022-11-20T05:13:43.920Z,24.02
2022-11-20T05:16:16.002Z,22.67
2022-11-20T05:18:43.098Z,24.25
2022-11-20T05:21:10.929Z,26.15
2022-11-20T05:23:38.376Z,21.92
2022-11-20T05:26:05.970Z,21.30
2022-11-20T05:28:33.643Z,20.75
2022-11-20T05:31:08.462Z,19.58
2022-11-20T05:33:36.513Z,19.45
2022-11-20T05:36:06.663Z,20.33
2022-11-20T05:38:33.567Z,21.13
2022-11-20T05:41:17.796Z,22.48
2022-11-20T05:43:46.244Z,24.73
2022-11-20T05:46:14.713Z,25.17
2022-11-20T05:48:42.926Z,25.20
2022-11-20T05:51:12.115Z,25.75
2022-11-20T05:53:42.437Z,26.38
2022-11-20T05:56:19.023Z,25.50
2022-11-20T05:58:46.383Z,29.42
2022-11-20T06:01:17.052Z,26.58
2022-11-20T06:03:47.039Z,26.55
2022-11-20T06:06:17.085Z,23.77
2022-11-20T06:08:44.944Z,24.45
2022-11-20T06:11:13.852Z,25.48
2022-11-20T06:13:42.379Z,23.20
2022-11-20T06:16:10.143Z,24.80
2022-11-20T06:18:37.063Z,24.98
2022-11-20T06:21:10.826Z,28.05
2022-11-20T06:23:38.252Z,32.10
2022-11-20T06:26:07.536Z,31.60
2022-11-20T06:28:34.466Z,30.80
2022-11-20T06:31:01.285Z,33.00
2022-11-20T06:33:28.370Z,30.42
2022-11-20T06:36:00.441Z,24.83
2022-11-20T06:38:29.495Z,25.90
2022-11-20T06:40:56.514Z,24.85
2022-11-20T06:43:23.926Z,25.15
2022-11-20T06:45:54.942Z,24.40
2022-11-20T06:48:22.205Z,24.77
2022-11-20T06:50:49.273Z,24.38
2022-11-20T06:53:16.426Z,25.70
2022-11-20T06:55:44.826Z,27.65
2022-11-20T06:58:12.049Z,27.55
2022-11-20T07:00:39.058Z,29.35
2022-11-20T07:03:07.668Z,27.10
2022-11-20T07:05:34.354Z,29.85
2022-11-20T07:08:01.117Z,28.42
2022-11-20T07:10:28.101Z,29.65
2022-11-20T07:12:54.907Z,29.92
2022-11-20T07:15:23.612Z,30.27
2022-11-20T07:17:50.436Z,25.08
2022-11-20T07:20:17.632Z,23.88
2022-11-20T07:22:44.535Z,25.67
2022-11-20T07:25:11.877Z,26.23
2022-11-20T07:27:38.486Z,23.85
2022-11-20T07:30:05.718Z,21.80
2022-11-20T07:32:32.489Z,23.30
2022-11-20T07:34:59.154Z,21.92
2022-11-20T07:37:25.890Z,22.67
2022-11-20T07:39:52.950Z,18.13
2022-11-20T07:42:19.706Z,20.98
2022-11-20T07:44:46.424Z,21.20
2022-11-20T07:47:13.215Z,20.25
2022-11-20T07:49:39.883Z,21.40
2022-11-20T07:52:06.536Z,23.17
2022-11-20T07:54:33.479Z,21.05
2022-11-20T07:57:00.119Z,23.70
2022-11-20T07:59:26.924Z,21.17
2022-11-20T08:01:53.749Z,21.02
2022-11-20T08:04:20.471Z,20.85
2022-11-20T08:06:47.186Z,18.98
2022-11-20T08:09:13.895Z,18.48
2022-11-20T08:11:59.249Z,21.23
2022-11-20T08:14:26.039Z,19.05
2022-11-20T08:16:52.953Z,19.80
2022-11-20T08:19:20.215Z,20.35
2022-11-20T08:21:47.295Z,17.80
2022-11-20T08:24:14.092Z,18.05
2022-11-20T08:26:41.856Z,17.38
2022-11-20T08:29:08.886Z,19.00
2022-11-20T08:31:36.001Z,17.00
2022-11-20T08:34:06.428Z,20.02
2022-11-20T08:36:36.053Z,15.73
2022-11-20T08:39:03.099Z,19.17
2022-11-20T08:41:34.161Z,15.43
2022-11-20T08:44:03.107Z,18.55
2022-11-20T08:46:38.302Z,16.77
2022-11-20T08:49:07.178Z,17.52
2022-11-20T08:51:34.299Z,16.45
2022-11-20T08:54:01.435Z,16.30
2022-11-20T08:56:28.349Z,17.77
2022-11-20T08:59:20.117Z,17.17
2022-11-20T09:01:41.891Z,18.25
2022-11-20T09:04:08.672Z,19.17
2022-11-20T09:06:35.482Z,18.50
2022-11-20T09:09:06.297Z,18.08
2022-11-20T09:11:33.659Z,21.40
2022-11-20T09:14:01.138Z,18.08
2022-11-20T09:16:27.852Z,20.90
2022-11-20T09:19:20.281Z,18.70
2022-11-20T09:21:41.193Z,17.23
2022-11-20T09:24:08.182Z,18.25
2022-11-20T09:26:34.879Z,19.13
2022-11-20T09:29:01.556Z,21.40
2022-11-20T09:31:28.506Z,20.95
2022-11-20T09:33:55.152Z,20.25
2022-11-20T09:36:22.118Z,20.73
2022-11-20T09:38:48.969Z,24.60
2022-11-20T09:41:27.859Z,21.00
2022-11-20T09:44:13.492Z,19.63
2022-11-20T09:46:47.361Z,18.08
2022-11-20T09:50:00.417Z,19.58
2022-11-20T09:52:39.198Z,21.73
2022-11-20T09:55:10.364Z,19.88
2022-11-20T09:57:40.454Z,21.40
2022-11-20T10:00:14.636Z,18.70
2022-11-20T10:02:50.293Z,19.00
2022-11-20T10:05:20.786Z,21.92
2022-11-20T10:08:03.198Z,22.17
2022-11-20T10:10:32.878Z,21.60
2022-11-20T10:13:14.848Z,15.02
2022-11-20T10:16:06.382Z,20.25
2022-11-20T10:18:45.552Z,21.35
2022-11-20T10:21:21.454Z,22.30
2022-11-20T10:24:02.202Z,23.65
2022-11-20T10:26:47.595Z,22.30
2022-11-20T10:29:17.566Z,21.38
2022-11-20T10:32:18.053Z,19.13
2022-11-20T10:34:47.804Z,18.98
2022-11-20T10:37:18.312Z,21.25
2022-11-20T10:39:50.954Z,19.52
2022-11-20T10:42:35.570Z,24.92
2022-11-20T10:45:23.215Z,22.08
2022-11-20T10:47:50.003Z,22.85
2022-11-20T10:50:22.506Z,19.55
2022-11-20T10:52:55.379Z,24.67
2022-11-20T10:55:43.531Z,20.08
2022-11-20T10:58:35.608Z,18.67
2022-11-20T11:01:19.778Z,23.90
2022-11-20T11:03:46.980Z,25.20
2022-11-20T11:06:42.318Z,27.42
2022-11-20T11:09:20.654Z,28.50
2022-11-20T11:11:48.146Z,20.33
2022-11-20T11:14:16.560Z,22.92
2022-11-20T11:16:57.361Z,21.83
2022-11-20T11:19:24.900Z,20.63
2022-11-20T11:21:55.744Z,24.70
2022-11-20T11:24:42.259Z,23.05
2022-11-20T11:27:17.574Z,26.52
2022-11-20T11:29:45.450Z,23.73
2022-11-20T11:32:22.411Z,25.25
2022-11-20T11:35:12.622Z,22.50
2022-11-20T11:37:40.047Z,22.17
2022-11-20T11:40:23.926Z,23.58
2022-11-20T11:42:56.042Z,22.65
2022-11-20T11:45:22.875Z,20.98
2022-11-20T11:47:50.065Z,28.33
2022-11-20T11:50:21.451Z,22.60
2022-11-20T11:53:00.361Z,19.90
2022-11-20T11:55:35.513Z,23.20
2022-11-20T11:58:11.126Z,22.95
2022-11-20T12:00:40.834Z,17.95
2022-11-20T12:03:20.636Z,19.58
2022-11-20T12:06:04.521Z,18.08
2022-11-20T12:08:45.070Z,19.13
2022-11-20T12:11:11.779Z,17.42
2022-11-20T12:13:43.122Z,22.20
2022-11-20T12:16:14.181Z,19.27
2022-11-20T12:18:44.907Z,20.98
2022-11-20T12:21:20.802Z,22.00
2022-11-20T12:24:02.753Z,20.33
2022-11-20T12:26:32.572Z,21.38
2022-11-20T12:29:25.075Z,17.55
2022-11-20T12:32:17.081Z,14.50
2022-11-20T12:35:11.858Z,21.25
2022-11-20T12:38:09.474Z,21.92
2022-11-20T12:40:54.120Z,19.55
2022-11-20T12:43:44.964Z,19.70
2022-11-20T12:46:34.600Z,17.27
2022-11-20T12:49:10.424Z,17.30
2022-11-20T12:51:52.830Z,15.00
2022-11-20T12:54:19.515Z,18.35
2022-11-20T12:57:06.379Z,17.30
2022-11-20T12:59:39.067Z,17.67
2022-11-20T16:21:59.633Z,18.55
2022-11-20T16:24:29.193Z,18.92
2022-11-20T16:26:56.172Z,14.27
2022-11-20T16:29:23.234Z,16.65
2022-11-20T16:31:49.886Z,16.10
2022-11-20T16:34:17.547Z,17.95
2022-11-20T16:36:45.969Z,19.50
2022-11-20T16:39:14.428Z,20.45
2022-11-20T16:41:42.505Z,18.80
2022-11-20T16:44:11.736Z,20.27
2022-11-20T16:46:40.783Z,20.50
2022-11-20T16:49:12.678Z,18.50
2022-11-20T16:51:40.517Z,20.33
2022-11-20T16:54:09.303Z,16.67
2022-11-20T16:56:36.509Z,16.98
2022-11-20T16:59:03.898Z,14.60
2022-11-20T17:01:31.635Z,19.88
2022-11-20T17:04:00.889Z,20.05
2022-11-20T17:06:32.801Z,16.75
2022-11-20T17:08:59.624Z,17.35
2022-11-20T17:11:27.617Z,16.45
2022-11-20T17:14:00.735Z,18.17
2022-11-20T17:16:27.494Z,16.75
2022-11-20T17:19:02.975Z,17.00
2022-11-20T17:21:31.197Z,17.70
2022-11-20T17:24:01.233Z,17.30
2022-11-20T17:26:28.857Z,16.58
2022-11-20T17:28:58.278Z,18.58
2022-11-20T17:31:25.219Z,16.92
2022-11-20T17:33:52.152Z,19.42
2022-11-20T17:36:20.342Z,16.45
2022-11-20T17:38:47.329Z,17.67
2022-11-20T17:41:22.394Z,17.15
2022-11-20T17:43:49.843Z,18.80
2022-11-20T17:46:18.738Z,17.83
2022-11-20T17:48:45.966Z,19.80
2022-11-20T17:51:18.170Z,17.85
2022-11-20T17:53:47.423Z,18.27
2022-11-20T17:56:32.792Z,17.52
2022-11-20T17:59:00.826Z,17.67
2022-11-20T18:01:27.646Z,21.77
2022-11-20T18:03:56.609Z,20.17
2022-11-20T18:06:27.712Z,19.15
2022-11-20T18:08:54.606Z,21.95
2022-11-20T18:11:29.710Z,17.98
2022-11-20T18:14:16.851Z,17.77
2022-11-20T18:16:46.771Z,17.95
2022-11-20T18:19:27.602Z,16.15
2022-11-20T18:21:56.611Z,15.85
2022-11-20T18:24:23.517Z,17.05
2022-11-20T18:26:50.345Z,16.35
2022-11-20T18:29:17.668Z,18.83
2022-11-20T18:31:44.353Z,18.10
2022-11-20T18:34:14.258Z,16.42
2022-11-20T18:36:42.537Z,18.30
2022-11-20T18:39:13.613Z,19.33
2022-11-20T18:41:59.484Z,19.98
2022-11-20T18:44:47.673Z,15.68
2022-11-20T18:47:16.650Z,20.00
2022-11-20T18:49:46.337Z,19.58
2022-11-20T18:52:13.444Z,21.38
2022-11-20T18:54:40.307Z,20.05
2022-11-20T18:57:07.043Z,19.92
2022-11-20T18:59:33.777Z,20.95
2022-11-20T19:02:00.508Z,18.88
2022-11-20T19:04:27.796Z,21.33
2022-11-20T19:06:56.402Z,20.10
2022-11-20T19:09:23.877Z,17.50
2022-11-20T19:11:51.933Z,18.60
2022-11-20T19:14:19.110Z,20.50
2022-11-20T19:16:46.382Z,18.08
2022-11-20T19:19:13.115Z,19.52
2022-11-20T19:21:41.161Z,20.38
2022-11-20T19:24:08.893Z,23.20
2022-11-20T19:26:37.369Z,23.85
2022-11-20T19:29:05.389Z,21.00
2022-11-20T19:31:32.598Z,21.88
2022-11-20T19:34:02.180Z,22.42
2022-11-20T19:36:30.123Z,23.67
2022-11-20T19:38:57.279Z,20.08
2022-11-20T19:41:32.027Z,22.13
2022-11-20T19:44:00.818Z,17.92
2022-11-20T19:46:28.913Z,20.15
2022-11-20T19:48:56.022Z,22.10
2022-11-20T19:51:30.200Z,21.10
2022-11-20T19:53:58.313Z,21.42
2022-11-20T19:56:26.035Z,20.85
2022-11-20T19:58:53.788Z,15.60
2022-11-20T20:01:23.309Z,19.45
2022-11-20T20:03:50.604Z,16.92
2022-11-20T20:06:20.434Z,18.20
2022-11-20T20:08:47.931Z,20.05
2022-11-20T20:11:19.799Z,17.95
2022-11-20T20:13:47.371Z,17.20
2022-11-20T20:16:16.716Z,17.35
2022-11-20T20:18:44.043Z,17.60
2022-11-20T20:21:12.884Z,16.90
2022-11-20T20:23:40.262Z,18.88
2022-11-20T20:26:08.378Z,16.00
2022-11-20T20:28:36.259Z,18.25
2022-11-20T20:31:11.806Z,18.05
2022-11-20T20:33:39.892Z,17.80
2022-11-20T20:36:08.020Z,18.88
2022-11-20T20:38:34.832Z,18.55
2022-11-20T20:41:01.960Z,19.85
2022-11-20T20:43:28.882Z,18.17
2022-11-20T20:45:55.697Z,19.70
2022-11-20T20:48:24.379Z,19.70
2022-11-20T20:51:02.773Z,19.77
2022-11-20T20:53:31.225Z,18.80
2022-11-20T20:55:59.682Z,20.70
2022-11-20T20:58:27.867Z,19.00
2022-11-20T21:00:55.156Z,22.08
2022-11-20T21:03:21.875Z,22.88
2022-11-20T21:05:55.612Z,21.05
2022-11-20T21:08:22.371Z,21.75
2022-11-20T21:10:49.774Z,22.30
2022-11-20T21:13:16.510Z,21.70
2022-11-20T21:15:46.730Z,20.00
2022-11-20T21:18:13.473Z,22.20
2022-11-20T21:20:59.295Z,21.90
2022-11-20T21:25:52.496Z,18.73
2022-11-20T21:28:19.212Z,18.88
2022-11-20T21:30:46.590Z,19.20
2022-11-20T21:33:13.486Z,20.40
2022-11-20T21:35:41.338Z,22.00
2022-11-20T21:38:08.137Z,24.95
2022-11-20T21:40:34.728Z,21.90
2022-11-20T21:43:01.430Z,23.48
2022-11-20T21:45:28.039Z,21.85
2022-11-20T21:47:55.144Z,23.13
2022-11-20T21:50:22.423Z,23.48
2022-11-20T21:52:49.080Z,23.15
2022-11-20T21:55:15.847Z,23.45
2022-11-20T21:57:42.496Z,24.85
2022-11-20T22:00:10.601Z,21.83
2022-11-20T22:02:40.375Z,22.10
2022-11-20T22:05:08.088Z,21.17
2022-11-20T22:07:35.458Z,20.17
2022-11-20T22:10:02.229Z,21.85
2022-11-20T22:12:28.844Z,18.80
2022-11-20T22:14:55.541Z,19.33
2022-11-20T22:17:42.149Z,20.10
2022-11-20T22:20:09.851Z,20.42
2022-11-20T22:22:36.482Z,20.15
2022-11-20T22:25:03.279Z,22.10
2022-11-20T22:27:29.963Z,20.95
2022-11-20T22:29:56.528Z,20.25
2022-11-20T22:32:23.247Z,21.95
2022-11-20T22:34:49.917Z,21.60
2022-11-20T22:37:16.589Z,23.55
2022-11-20T22:39:43.269Z,20.55
2022-11-20T22:42:09.999Z,20.27
2022-11-20T22:44:36.650Z,20.63
2022-11-20T22:47:07.452Z,19.50
2022-11-20T22:49:36.835Z,21.95
2022-11-20T22:52:03.562Z,24.42
2022-11-20T22:54:30.218Z,21.90
2022-11-20T22:56:56.892Z,21.45
2022-11-20T22:59:23.597Z,23.17
2022-11-20T23:01:50.362Z,22.30
2022-11-20T23:04:17.063Z,24.83
2022-11-20T23:06:43.696Z,23.90
2022-11-20T23:09:12.873Z,23.30
2022-11-20T23:11:39.578Z,24.20
2022-11-20T23:14:10.767Z,23.38
2022-11-20T23:16:37.542Z,22.60
2022-11-20T23:19:09.282Z,22.33
2022-11-20T23:21:37.262Z,20.70
2022-11-20T23:24:04.607Z,21.05
2022-11-20T23:26:33.571Z,22.92
2022-11-20T23:29:01.201Z,20.30
2022-11-20T23:31:29.881Z,19.45
2022-11-20T23:33:56.890Z,19.90
2022-11-20T23:36:23.701Z,20.60
2022-11-20T23:38:50.416Z,23.58
2022-11-20T23:41:17.257Z,19.17
2022-11-20T23:43:43.975Z,20.33
2022-11-20T23:46:15.154Z,22.85
2022-11-20T23:48:44.964Z,23.60
2022-11-20T23:51:11.775Z,23.52
2022-11-20T23:53:38.547Z,22.88
2022-11-20T23:56:06.078Z,20.63
2022-11-20T23:58:35.324Z,20.90
